createdAt,value
2023-06-13T00:00:49.077Z,5.40
2023-06-13T00:03:16.833Z,5.85
2023-06-13T00:05:46.845Z,7.57
2023-06-13T00:08:19.614Z,6.53
2023-06-13T00:10:48.114Z,8.30
2023-06-13T00:13:16.787Z,9.85
2023-06-13T00:15:52.446Z,9.65
2023-06-13T00:18:21.156Z,9.00
2023-06-13T00:20:49.332Z,8.60
2023-06-13T00:23:17.805Z,8.18
2023-06-13T00:25:45.923Z,7.72
2023-06-13T00:28:14.167Z,8.00
2023-06-13T00:30:42.332Z,7.78
2023-06-13T00:33:11.961Z,7.78
2023-06-13T00:35:40.254Z,7.60
2023-06-13T00:38:08.556Z,7.20
2023-06-13T00:40:36.280Z,7.13
2023-06-13T00:43:04.315Z,6.57
2023-06-13T00:45:33.334Z,7.03
2023-06-13T00:48:03.489Z,6.85
2023-06-13T00:50:32.543Z,6.35
2023-06-13T00:53:00.768Z,6.80
2023-06-13T00:55:28.574Z,6.25
2023-06-13T00:58:07.848Z,6.28
2023-06-13T01:00:38.078Z,6.47
2023-06-13T01:03:11.247Z,6.65
2023-06-13T01:05:40.014Z,6.28
2023-06-13T01:08:28.803Z,6.63
2023-06-13T01:11:19.948Z,6.93
2023-06-13T01:14:02.542Z,6.63
2023-06-13T01:16:37.409Z,6.15
2023-06-13T01:19:10.170Z,6.47
2023-06-13T01:21:38.726Z,6.38
2023-06-13T01:24:08.551Z,6.40
2023-06-13T01:26:48.101Z,6.20
2023-06-13T01:29:17.193Z,6.30
2023-06-13T01:31:47.482Z,6.05
2023-06-13T01:34:15.953Z,6.30
2023-06-13T01:36:44.166Z,6.07
2023-06-13T01:39:12.151Z,5.78
2023-06-13T01:41:42.542Z,5.90
2023-06-13T01:44:13.160Z,6.00
2023-06-13T01:46:46.758Z,5.63
2023-06-13T01:49:22.113Z,5.70
2023-06-13T01:51:59.628Z,6.13
2023-06-13T01:54:28.218Z,5.75
2023-06-13T01:56:58.218Z,6.43
2023-06-13T01:59:27.047Z,6.50
2023-06-13T02:01:55.101Z,5.82
2023-06-13T02:04:22.909Z,6.10
2023-06-13T02:06:51.209Z,6.10
2023-06-13T02:09:19.320Z,6.32
2023-06-13T02:11:47.038Z,6.47
2023-06-13T02:14:15.412Z,6.15
2023-06-13T02:16:43.418Z,6.53
2023-06-13T02:19:11.879Z,6.32
2023-06-13T02:21:45.926Z,6.80
2023-06-13T02:24:16.197Z,6.60
2023-06-13T02:26:45.620Z,6.50
2023-06-13T02:29:13.660Z,6.93
2023-06-13T02:31:43.018Z,6.20
2023-06-13T02:34:10.879Z,6.53
2023-06-13T02:36:38.664Z,6.50
2023-06-13T02:39:08.911Z,6.45
2023-06-13T02:41:37.112Z,6.22
2023-06-13T02:44:05.067Z,6.82
2023-06-13T02:46:33.173Z,6.70
2023-06-13T02:49:00.807Z,7.07
2023-06-13T02:51:28.696Z,6.70
2023-06-13T02:53:56.503Z,6.05
2023-06-13T02:56:24.209Z,7.00
2023-06-13T02:58:52.188Z,6.97
2023-06-13T03:01:20.432Z,6.40
2023-06-13T03:03:49.038Z,7.00
2023-06-13T03:06:18.858Z,6.80
2023-06-13T03:08:47.185Z,6.53
2023-06-13T03:11:15.558Z,7.28
2023-06-13T03:13:44.062Z,6.97
2023-06-13T03:16:13.614Z,7.40
2023-06-13T03:18:41.863Z,6.57
2023-06-13T03:21:10.207Z,6.63
2023-06-13T03:23:38.147Z,6.45
2023-06-13T03:26:07.593Z,7.18
2023-06-13T03:28:35.867Z,7.00
2023-06-13T03:31:04.117Z,6.90
2023-06-13T03:33:35.889Z,7.63
2023-06-13T03:36:04.703Z,7.72
2023-06-13T03:38:32.356Z,7.57
2023-06-13T03:41:00.324Z,9.18
2023-06-13T03:43:28.518Z,9.18
2023-06-13T03:45:57.130Z,10.57
2023-06-13T03:48:24.989Z,11.15
2023-06-13T03:50:53.337Z,12.43
2023-06-13T03:53:22.618Z,12.90
2023-06-13T03:55:51.226Z,13.10
2023-06-13T03:58:21.302Z,12.73
2023-06-13T04:00:49.245Z,12.95
2023-06-13T04:03:17.465Z,12.38
2023-06-13T04:05:45.262Z,11.38
2023-06-13T04:08:13.636Z,11.60
2023-06-13T04:10:41.477Z,9.70
2023-06-13T04:13:09.472Z,10.30
2023-06-13T04:15:37.647Z,10.23
2023-06-13T04:18:05.548Z,9.80
2023-06-13T04:20:36.159Z,9.20
2023-06-13T04:23:03.885Z,9.60
2023-06-13T04:25:32.100Z,8.40
2023-06-13T04:27:59.818Z,7.93
2023-06-13T04:30:29.530Z,8.82
2023-06-13T04:33:03.734Z,8.15
2023-06-13T04:35:38.506Z,8.40
2023-06-13T04:38:06.131Z,7.55
2023-06-13T04:40:34.945Z,6.70
2023-06-13T04:43:06.222Z,6.57
2023-06-13T04:45:34.918Z,6.18
2023-06-13T04:48:04.555Z,5.75
2023-06-13T04:50:32.778Z,5.40
2023-06-13T04:53:00.327Z,5.07
2023-06-13T04:55:30.663Z,4.88
2023-06-13T04:57:58.390Z,5.13
2023-06-13T05:00:27.258Z,5.28
2023-06-13T05:02:57.295Z,4.80
2023-06-13T05:05:25.223Z,5.15
2023-06-13T05:07:59.327Z,5.00
2023-06-13T05:10:27.721Z,5.75
2023-06-13T05:12:56.975Z,5.72
2023-06-13T05:15:25.596Z,5.80
2023-06-13T05:17:58.603Z,6.45
2023-06-13T05:20:28.228Z,6.32
2023-06-13T05:22:56.016Z,6.30
2023-06-13T05:25:26.704Z,6.00
2023-06-13T05:27:56.656Z,6.05
2023-06-13T05:30:24.317Z,6.30
2023-06-13T05:32:53.329Z,6.32
2023-06-13T05:35:21.502Z,6.55
2023-06-13T05:37:50.137Z,7.35
2023-06-13T05:40:18.104Z,8.02
2023-06-13T05:42:46.001Z,8.98
2023-06-13T05:45:13.638Z,9.43
2023-06-13T05:47:41.500Z,10.68
2023-06-13T05:50:09.407Z,10.68
2023-06-13T05:52:37.082Z,10.52
2023-06-13T05:55:05.542Z,11.15
2023-06-13T05:57:40.986Z,10.82
2023-06-13T06:00:16.810Z,9.40
2023-06-13T06:02:45.932Z,8.50
2023-06-13T06:05:14.962Z,8.77
2023-06-13T06:07:43.896Z,9.23
2023-06-13T06:10:12.487Z,8.30
2023-06-13T06:12:40.915Z,8.25
2023-06-13T06:15:08.713Z,8.52
2023-06-13T06:17:37.013Z,7.95
2023-06-13T06:20:07.476Z,5.55
2023-06-13T06:22:37.337Z,5.57
2023-06-13T06:25:05.051Z,5.97
2023-06-13T06:27:32.712Z,4.35
2023-06-13T06:30:00.481Z,4.72
2023-06-13T06:32:28.139Z,3.90
2023-06-13T06:34:56.252Z,3.92
2023-06-13T06:37:24.191Z,3.42
2023-06-13T06:39:51.975Z,3.95
2023-06-13T06:42:19.644Z,3.45
2023-06-13T06:44:59.537Z,3.40
2023-06-13T06:47:27.543Z,3.78
2023-06-13T06:49:55.126Z,4.00
2023-06-13T06:52:22.833Z,3.92
2023-06-13T06:54:50.433Z,2.90
2023-06-13T06:57:19.830Z,3.35
2023-06-13T06:59:49.793Z,2.90
2023-06-13T07:02:17.513Z,3.92
2023-06-13T07:04:46.897Z,4.32
2023-06-13T07:07:14.466Z,4.50
2023-06-13T07:09:42.254Z,3.30
2023-06-13T07:12:10.174Z,3.40
2023-06-13T07:14:37.902Z,3.08
2023-06-13T07:17:05.881Z,3.10
2023-06-13T07:19:33.517Z,3.10
2023-06-13T07:22:05.733Z,3.17
2023-06-13T07:24:34.033Z,3.50
2023-06-13T07:27:01.679Z,2.90
2023-06-13T07:29:29.620Z,2.55
2023-06-13T07:31:57.326Z,2.45
2023-06-13T07:36:56.127Z,3.03
2023-06-13T07:39:23.726Z,2.58
2023-06-13T07:41:51.744Z,2.40
2023-06-13T07:44:20.268Z,2.60
2023-06-13T07:46:48.814Z,2.45
2023-06-13T07:49:16.594Z,2.30
2023-06-13T07:51:45.125Z,2.35
2023-06-13T07:54:12.733Z,2.45
2023-06-13T07:56:40.310Z,2.30
2023-06-13T07:59:08.294Z,2.25
2023-06-13T08:01:36.229Z,2.92
2023-06-13T08:04:05.134Z,2.60
2023-06-13T08:06:32.760Z,2.20
2023-06-13T08:09:00.453Z,2.45
2023-06-13T08:11:28.543Z,2.53
2023-06-13T08:13:56.445Z,2.20
2023-06-13T08:16:24.530Z,2.50
2023-06-13T08:18:52.221Z,2.70
2023-06-13T08:21:19.984Z,1.88
2023-06-13T08:23:47.710Z,2.10
2023-06-13T08:26:16.822Z,2.53
2023-06-13T08:28:44.550Z,2.00
2023-06-13T08:31:39.517Z,2.25
2023-06-13T08:34:08.814Z,2.30
2023-06-13T08:36:38.244Z,2.10
2023-06-13T08:39:06.334Z,1.83
2023-06-13T08:41:34.471Z,2.30
2023-06-13T08:44:02.924Z,1.90
2023-06-13T08:46:30.986Z,2.30
2023-06-13T08:48:58.820Z,2.22
2023-06-13T08:51:30.168Z,2.30
2023-06-13T08:54:01.456Z,2.33
2023-06-13T08:56:30.768Z,2.40
2023-06-13T08:59:09.999Z,2.20
2023-06-13T09:01:41.042Z,2.47
2023-06-13T09:04:10.233Z,2.17
2023-06-13T09:06:38.765Z,1.70
2023-06-13T09:09:07.714Z,1.77
2023-06-13T09:11:39.077Z,1.90
2023-06-13T09:14:07.338Z,1.70
2023-06-13T09:16:35.676Z,1.83
2023-06-13T09:19:03.916Z,1.83
2023-06-13T09:21:32.831Z,1.90
2023-06-13T09:24:02.427Z,1.52
2023-06-13T09:26:31.069Z,1.80
2023-06-13T09:29:01.372Z,1.70
2023-06-13T09:31:32.009Z,1.60
2023-06-13T09:34:02.841Z,1.80
2023-06-13T09:36:30.879Z,1.60
2023-06-13T09:38:58.741Z,1.80
2023-06-13T09:41:26.939Z,1.67
2023-06-13T09:43:54.614Z,1.65
2023-06-13T09:46:27.567Z,1.50
2023-06-13T09:48:55.761Z,1.38
2023-06-13T09:51:23.864Z,1.38
2023-06-13T09:53:51.839Z,1.50
2023-06-13T09:56:20.951Z,1.55
2023-06-13T09:58:52.530Z,1.30
2023-06-13T10:01:21.383Z,1.50
2023-06-13T10:03:49.769Z,1.80
2023-06-13T10:06:17.393Z,1.80
2023-06-13T10:08:45.093Z,1.83
2023-06-13T10:11:16.854Z,1.80
2023-06-13T10:14:03.599Z,2.13
2023-06-13T10:16:33.099Z,2.30
2023-06-13T10:19:01.103Z,1.92
2023-06-13T10:21:36.856Z,2.08
2023-06-13T10:24:12.406Z,1.73
2023-06-13T10:26:44.648Z,1.70
2023-06-13T10:29:15.426Z,1.92
2023-06-13T10:32:01.627Z,2.20
2023-06-13T10:34:49.590Z,1.90
2023-06-13T10:37:26.298Z,1.98
2023-06-13T10:40:06.738Z,1.92
2023-06-13T10:42:47.244Z,2.45
2023-06-13T10:45:20.083Z,2.20
2023-06-13T10:47:47.791Z,2.40
2023-06-13T10:50:17.549Z,2.20
2023-06-13T10:52:52.235Z,2.25
2023-06-13T10:55:27.513Z,2.40
2023-06-13T10:57:58.755Z,2.17
2023-06-13T11:00:26.623Z,2.10
2023-06-13T11:03:00.744Z,1.90
2023-06-13T11:05:40.990Z,2.03
2023-06-13T11:08:14.938Z,2.25
2023-06-13T11:10:45.061Z,2.50
2023-06-13T11:13:22.734Z,2.53
2023-06-13T11:15:51.963Z,2.60
2023-06-13T11:18:22.920Z,2.00
2023-06-13T11:20:50.973Z,2.20
2023-06-13T11:23:21.893Z,2.28
2023-06-13T11:25:51.300Z,2.28
2023-06-13T11:28:19.922Z,2.20
2023-06-13T11:30:50.833Z,2.05
2023-06-13T11:33:20.216Z,2.10
2023-06-13T11:35:50.604Z,2.20
2023-06-13T11:38:29.303Z,2.20
2023-06-13T11:41:00.663Z,2.30
2023-06-13T11:43:31.547Z,2.20
2023-06-13T11:46:01.097Z,2.35
2023-06-13T11:48:35.866Z,1.95
2023-06-13T11:51:17.427Z,2.58
2023-06-13T11:53:49.310Z,1.95
2023-06-13T11:56:17.281Z,2.30
2023-06-13T11:58:46.039Z,2.50
2023-06-13T12:01:17.865Z,2.20
2023-06-13T12:03:49.462Z,2.40
2023-06-13T12:06:18.526Z,2.25
2023-06-13T12:08:46.590Z,2.53
2023-06-13T12:11:25.318Z,2.35
2023-06-13T12:13:55.363Z,2.20
2023-06-13T12:16:24.536Z,1.90
2023-06-13T12:18:53.651Z,2.55
2023-06-13T12:21:23.310Z,2.25
2023-06-13T12:23:51.224Z,2.80
2023-06-13T12:26:19.258Z,2.70
2023-06-13T12:28:48.475Z,2.67
2023-06-13T12:31:16.954Z,2.42
2023-06-13T12:33:46.009Z,2.55
2023-06-13T12:36:13.548Z,2.58
2023-06-13T12:38:43.087Z,3.00
2023-06-13T12:41:15.612Z,2.70
2023-06-13T12:43:44.980Z,2.70
2023-06-13T12:46:14.416Z,2.88
2023-06-13T12:48:45.139Z,2.63
2023-06-13T12:51:28.341Z,2.50
2023-06-13T12:54:14.757Z,2.60
2023-06-13T12:57:02.631Z,2.50
2023-06-13T12:59:31.999Z,2.50
2023-06-13T13:02:04.047Z,2.88
2023-06-13T13:04:33.924Z,2.53
2023-06-13T13:07:02.057Z,2.35
2023-06-13T13:09:30.919Z,2.30
2023-06-13T13:11:59.086Z,2.30
2023-06-13T13:14:27.640Z,2.00
2023-06-13T13:16:56.085Z,2.40
2023-06-13T13:19:24.820Z,2.92
2023-06-13T13:21:53.032Z,3.08
2023-06-13T13:24:21.220Z,3.15
2023-06-13T13:26:51.242Z,3.33
2023-06-13T13:29:18.918Z,3.47
2023-06-13T13:31:47.021Z,3.10
2023-06-13T13:34:22.702Z,3.20
2023-06-13T13:36:52.131Z,3.20
2023-06-13T13:39:20.595Z,2.78
2023-06-13T13:41:48.265Z,2.50
2023-06-13T13:44:16.274Z,2.60
2023-06-13T13:46:44.417Z,2.85
2023-06-13T13:49:12.164Z,2.83
2023-06-13T13:51:40.050Z,2.22
2023-06-13T13:54:07.746Z,2.70
2023-06-13T13:56:35.600Z,2.03
2023-06-13T13:59:03.569Z,2.20
2023-06-13T14:01:32.155Z,2.78
2023-06-13T14:04:00.045Z,2.28
2023-06-13T14:06:28.234Z,2.50
2023-06-13T14:08:59.663Z,2.60
2023-06-13T14:11:30.280Z,2.40
2023-06-13T14:14:00.348Z,2.55
2023-06-13T14:16:31.644Z,2.55
2023-06-13T14:18:59.583Z,2.15
2023-06-13T14:21:27.870Z,1.73
2023-06-13T14:23:55.844Z,2.10
2023-06-13T14:26:24.139Z,2.30
2023-06-13T14:28:52.443Z,1.85
2023-06-13T14:31:20.177Z,1.80
2023-06-13T14:33:49.900Z,1.50
2023-06-13T14:36:18.038Z,1.60
2023-06-13T14:38:46.474Z,1.50
2023-06-13T14:41:14.341Z,1.52
2023-06-13T14:43:42.058Z,1.60
2023-06-13T14:46:10.201Z,1.67
2023-06-13T14:48:37.943Z,1.42
2023-06-13T14:51:05.903Z,1.52
2023-06-13T14:53:35.904Z,1.58
2023-06-13T14:56:05.974Z,1.27
2023-06-13T14:58:34.168Z,1.42
2023-06-13T15:01:01.893Z,1.45
2023-06-13T15:03:32.899Z,1.48
2023-06-13T15:06:01.785Z,1.65
2023-06-13T15:08:29.380Z,1.50
2023-06-13T15:10:57.105Z,1.20
2023-06-13T15:13:24.868Z,1.40
2023-06-13T15:15:56.517Z,1.20
2023-06-13T15:18:24.357Z,1.65
2023-06-13T15:20:52.156Z,1.33
2023-06-13T15:23:19.866Z,1.48
2023-06-13T15:25:47.716Z,1.40
2023-06-13T15:28:16.508Z,1.45
2023-06-13T15:30:44.143Z,1.40
2023-06-13T15:33:12.923Z,1.10
2023-06-13T15:35:40.509Z,1.30
2023-06-13T15:38:10.401Z,1.40
2023-06-13T15:40:38.605Z,1.60
2023-06-13T15:43:06.273Z,1.40
2023-06-13T15:45:34.175Z,1.45
2023-06-13T15:48:04.044Z,1.35
2023-06-13T15:50:32.523Z,1.40
2023-06-13T15:53:01.438Z,1.73
2023-06-13T15:55:29.105Z,1.85
2023-06-13T15:57:56.956Z,1.65
2023-06-13T16:00:25.055Z,1.98
2023-06-13T16:02:52.976Z,1.90
2023-06-13T16:05:20.740Z,1.80
2023-06-13T16:07:48.782Z,1.80
2023-06-13T16:10:17.254Z,1.83
2023-06-13T16:12:46.211Z,2.20
2023-06-13T16:15:13.990Z,1.65
2023-06-13T16:17:41.910Z,2.05
2023-06-13T16:20:10.164Z,2.08
2023-06-13T16:22:38.267Z,1.52
2023-06-13T16:25:07.066Z,1.80
2023-06-13T16:27:34.862Z,1.73
2023-06-13T16:30:02.885Z,1.60
2023-06-13T16:32:30.970Z,1.90
2023-06-13T16:34:58.895Z,1.52
2023-06-13T16:37:28.441Z,1.65
2023-06-13T16:39:56.071Z,1.70
2023-06-13T16:42:23.803Z,1.67
2023-06-13T16:44:51.726Z,1.90
2023-06-13T16:47:19.277Z,1.70
2023-06-13T16:49:46.978Z,1.85
2023-06-13T16:52:14.655Z,2.47
2023-06-13T16:54:42.857Z,2.70
2023-06-13T16:57:11.485Z,2.20
2023-06-13T16:59:41.957Z,2.22
2023-06-13T17:02:10.041Z,2.67
2023-06-13T17:04:37.789Z,2.78
2023-06-13T17:07:05.711Z,2.80
2023-06-13T17:09:34.737Z,2.50
2023-06-13T17:12:02.647Z,2.65
2023-06-13T17:14:30.471Z,2.30
2023-06-13T17:16:58.746Z,2.33
2023-06-13T17:19:26.687Z,2.53
2023-06-13T17:21:54.448Z,2.80
2023-06-13T17:24:22.241Z,2.70
2023-06-13T17:26:49.948Z,2.75
2023-06-13T17:29:17.825Z,2.97
2023-06-13T17:31:45.756Z,3.03
2023-06-13T17:34:13.998Z,3.28
2023-06-13T17:36:41.711Z,2.90
2023-06-13T17:39:09.469Z,3.50
2023-06-13T17:41:37.131Z,3.67
2023-06-13T17:44:04.922Z,3.13
2023-06-13T17:46:33.551Z,3.40
2023-06-13T17:49:01.381Z,3.35
2023-06-13T17:51:29.604Z,3.55
2023-06-13T17:53:57.231Z,3.90
2023-06-13T17:56:25.214Z,3.72
2023-06-13T17:58:52.964Z,3.80
2023-06-13T18:01:20.794Z,3.65
2023-06-13T18:03:48.646Z,3.53
2023-06-13T18:06:16.790Z,4.03
2023-06-13T18:08:44.300Z,3.80
2023-06-13T18:11:12.659Z,4.18
2023-06-13T18:13:40.424Z,4.43
2023-06-13T18:16:08.697Z,4.30
2023-06-13T18:18:36.518Z,4.22
2023-06-13T18:21:04.789Z,4.35
2023-06-13T18:23:33.393Z,4.75
2023-06-13T18:26:01.418Z,4.88
2023-06-13T18:28:29.043Z,4.50
2023-06-13T18:30:57.295Z,4.53
2023-06-13T18:33:25.196Z,4.68
2023-06-13T18:35:55.541Z,5.00
2023-06-13T18:38:23.833Z,4.60
2023-06-13T18:40:51.776Z,5.20
2023-06-13T18:43:19.965Z,4.70
2023-06-13T18:45:47.985Z,5.32
2023-06-13T18:48:16.058Z,5.03
2023-06-13T18:50:43.751Z,5.18
2023-06-13T18:53:11.710Z,5.55
2023-06-13T18:55:40.613Z,5.15
2023-06-13T18:58:08.520Z,5.07
2023-06-13T19:00:36.490Z,5.60
2023-06-13T19:03:07.622Z,5.20
2023-06-13T19:05:36.145Z,5.15
2023-06-13T19:08:04.259Z,5.28
2023-06-13T19:10:32.017Z,6.10
2023-06-13T19:13:01.413Z,6.43
2023-06-13T19:15:29.598Z,6.63
2023-06-13T19:17:57.568Z,6.68
2023-06-13T19:20:25.733Z,5.82
2023-06-13T19:22:53.780Z,6.20
2023-06-13T19:25:26.493Z,7.20
2023-06-13T19:27:58.275Z,7.07
2023-06-13T19:30:31.513Z,7.30
2023-06-13T19:32:59.288Z,8.30
2023-06-13T19:35:27.583Z,8.02
2023-06-13T19:37:55.393Z,7.55
2023-06-13T19:40:23.464Z,8.82
2023-06-13T19:42:51.704Z,9.38
2023-06-13T19:45:21.884Z,9.98
2023-06-13T19:47:50.970Z,10.52
2023-06-13T19:50:18.832Z,10.90
2023-06-13T19:52:47.524Z,11.70
2023-06-13T19:55:15.242Z,11.63
2023-06-13T19:57:43.168Z,10.27
2023-06-13T20:00:13.881Z,9.10
2023-06-13T20:02:45.122Z,10.15
2023-06-13T20:05:13.417Z,10.35
2023-06-13T20:07:41.526Z,10.18
2023-06-13T20:10:09.844Z,10.95
2023-06-13T20:12:37.729Z,11.20
2023-06-13T20:15:10.244Z,11.32
2023-06-13T20:17:39.068Z,11.52
2023-06-13T20:20:11.039Z,11.57
2023-06-13T20:22:41.197Z,12.05
2023-06-13T20:25:09.688Z,12.43
2023-06-13T20:27:37.524Z,13.27
2023-06-13T20:30:05.662Z,13.95
2023-06-13T20:32:33.348Z,12.93
2023-06-13T20:35:01.058Z,13.57
2023-06-13T20:37:29.145Z,13.20
2023-06-13T20:40:01.622Z,13.55
2023-06-13T20:42:33.290Z,13.50
2023-06-13T20:45:03.789Z,13.93
2023-06-13T20:47:31.699Z,14.25
2023-06-13T20:49:59.312Z,14.05
2023-06-13T20:52:27.075Z,13.25
2023-06-13T20:54:55.335Z,13.63
2023-06-13T20:57:24.355Z,14.75
2023-06-13T20:59:57.650Z,14.20
2023-06-13T21:02:25.495Z,13.25
2023-06-13T21:04:53.122Z,13.73
2023-06-13T21:07:20.846Z,14.80
2023-06-13T21:09:48.514Z,16.67
2023-06-13T21:12:16.378Z,15.40
2023-06-13T21:14:44.477Z,17.10
2023-06-13T21:17:13.369Z,17.50
2023-06-13T21:19:41.083Z,17.55
2023-06-13T21:22:10.786Z,18.88
2023-06-13T21:24:38.379Z,19.17
2023-06-13T21:27:06.971Z,19.42
2023-06-13T21:29:34.736Z,20.27
2023-06-13T21:32:02.428Z,19.05
2023-06-13T21:34:30.260Z,20.95
2023-06-13T21:36:58.681Z,21.20
2023-06-13T21:39:26.696Z,20.63
2023-06-13T21:41:54.341Z,21.10
2023-06-13T21:44:22.390Z,20.08
2023-06-13T21:46:50.631Z,19.80
2023-06-13T21:49:18.530Z,19.25
2023-06-13T21:51:46.530Z,18.42
2023-06-13T21:54:14.291Z,17.80
2023-06-13T21:56:42.030Z,18.92
2023-06-13T21:59:09.774Z,17.98
2023-06-13T22:01:38.006Z,17.55
2023-06-13T22:04:05.963Z,18.00
2023-06-13T22:06:34.889Z,20.25
2023-06-13T22:09:02.662Z,19.73
2023-06-13T22:11:30.731Z,18.52
2023-06-13T22:13:58.828Z,17.02
2023-06-13T22:16:26.999Z,14.55
2023-06-13T22:18:55.021Z,15.05
2023-06-13T22:21:23.944Z,15.25
2023-06-13T22:23:52.366Z,15.00
2023-06-13T22:26:21.575Z,15.45
2023-06-13T22:28:49.583Z,15.27
2023-06-13T22:31:17.234Z,15.23
2023-06-13T22:33:44.689Z,14.32
2023-06-13T22:36:12.562Z,15.50
2023-06-13T22:38:40.610Z,14.77
2023-06-13T22:41:08.842Z,15.23
2023-06-13T22:43:36.387Z,14.90
2023-06-13T22:46:04.234Z,15.82
2023-06-13T22:48:33.335Z,14.82
2023-06-13T22:51:01.411Z,14.77
2023-06-13T22:53:29.654Z,15.77
2023-06-13T22:55:57.407Z,15.38
2023-06-13T22:58:25.216Z,16.00
2023-06-13T23:00:53.045Z,15.60
2023-06-13T23:03:21.098Z,16.15
2023-06-13T23:05:48.921Z,15.30
2023-06-13T23:08:17.270Z,15.45
2023-06-13T23:10:45.279Z,15.43
2023-06-13T23:13:12.829Z,15.05
2023-06-13T23:15:40.859Z,14.48
2023-06-13T23:18:08.320Z,14.43
2023-06-13T23:20:36.526Z,15.52
2023-06-13T23:23:05.121Z,15.60
2023-06-13T23:25:32.907Z,16.13
2023-06-13T23:28:02.063Z,16.35
2023-06-13T23:30:33.086Z,16.23
2023-06-13T23:33:01.910Z,15.25
2023-06-13T23:35:30.510Z,15.13
2023-06-13T23:37:59.242Z,14.38
2023-06-13T23:40:27.539Z,16.02
2023-06-13T23:42:55.163Z,15.05
2023-06-13T23:45:23.037Z,14.80
2023-06-13T23:47:51.707Z,15.82
2023-06-13T23:50:21.361Z,15.73
2023-06-13T23:52:49.075Z,15.15
2023-06-13T23:55:17.406Z,14.65
2023-06-13T23:57:44.987Z,14.23
